createdAt,value
2018-07-23T00:01:16.513Z,97.11
2018-07-23T00:03:42.817Z,96.60
2018-07-23T00:06:09.124Z,96.60
2018-07-23T00:08:35.435Z,95.96
2018-07-23T00:11:01.792Z,95.55
2018-07-23T00:13:28.108Z,95.50
2018-07-23T00:15:54.420Z,95.85
2018-07-23T00:18:20.735Z,95.89
2018-07-23T00:20:47.043Z,94.74
2018-07-23T00:23:13.350Z,93.95
2018-07-23T00:25:39.664Z,93.31
2018-07-23T00:28:05.990Z,93.61
2018-07-23T00:30:32.347Z,94.21
2018-07-23T00:32:58.668Z,93.73
2018-07-23T00:35:24.990Z,94.45
2018-07-23T00:37:51.301Z,94.84
2018-07-23T00:40:17.657Z,93.85
2018-07-23T00:42:43.976Z,94.38
2018-07-23T00:45:10.344Z,94.57
2018-07-23T00:47:36.652Z,94.88
2018-07-23T00:50:02.960Z,94.59
2018-07-23T00:52:29.278Z,94.70
2018-07-23T00:54:55.592Z,93.47
2018-07-23T00:57:21.916Z,93.84
2018-07-23T00:59:48.270Z,93.66
2018-07-23T01:02:14.583Z,94.08
2018-07-23T01:04:40.896Z,94.19
2018-07-23T01:07:07.207Z,94.47
2018-07-23T01:09:33.514Z,94.46
2018-07-23T01:11:59.828Z,94.79
2018-07-23T01:14:26.182Z,95.20
2018-07-23T01:16:52.488Z,95.69
2018-07-23T01:19:18.799Z,95.86
2018-07-23T01:21:45.109Z,97.05
2018-07-23T01:24:11.418Z,97.01
2018-07-23T01:26:37.722Z,97.14
2018-07-23T01:29:04.042Z,97.65
2018-07-23T01:31:30.356Z,98.15
2018-07-23T01:33:56.662Z,98.47
2018-07-23T01:36:22.994Z,98.91
2018-07-23T01:38:49.317Z,98.91
2018-07-23T01:41:15.618Z,99.59
2018-07-23T01:43:41.929Z,100.00
2018-07-23T01:46:08.241Z,100.00
2018-07-23T01:48:34.562Z,100.00
2018-07-23T01:51:00.904Z,100.00
2018-07-23T01:53:27.210Z,100.00
2018-07-23T01:55:53.520Z,100.00
2018-07-23T01:58:19.837Z,100.00
2018-07-23T02:00:46.155Z,100.00
2018-07-23T02:03:12.470Z,100.00
2018-07-23T02:05:38.780Z,100.00
2018-07-23T02:08:05.100Z,100.00
2018-07-23T02:10:31.409Z,100.00
2018-07-23T02:12:57.726Z,100.00
2018-07-23T02:15:24.042Z,100.00
2018-07-23T02:17:50.399Z,100.00
2018-07-23T02:20:16.667Z,100.00
2018-07-23T02:22:42.977Z,100.00
2018-07-23T02:25:09.284Z,100.00
2018-07-23T02:27:35.603Z,100.00
2018-07-23T02:30:01.934Z,100.00
2018-07-23T02:32:28.251Z,100.00
2018-07-23T02:34:54.611Z,100.00
2018-07-23T02:37:20.929Z,100.00
2018-07-23T02:39:47.245Z,100.00
2018-07-23T02:42:13.602Z,100.00
2018-07-23T02:44:39.923Z,100.00
2018-07-23T02:47:06.248Z,100.00
2018-07-23T02:49:32.569Z,100.00
2018-07-23T02:51:58.881Z,100.00
2018-07-23T02:54:25.202Z,100.00
2018-07-23T02:56:51.562Z,100.00
2018-07-23T02:59:17.874Z,100.00
2018-07-23T03:01:44.192Z,100.00
2018-07-23T03:04:10.501Z,100.00
2018-07-23T03:06:36.818Z,100.00
2018-07-23T03:09:03.133Z,100.00
2018-07-23T03:11:29.449Z,100.00
2018-07-23T03:13:55.762Z,100.00
2018-07-23T03:16:22.075Z,100.00
2018-07-23T03:18:48.382Z,100.00
2018-07-23T03:21:14.692Z,100.00
2018-07-23T03:23:40.995Z,100.00
2018-07-23T03:26:07.308Z,100.00
2018-07-23T03:28:33.619Z,100.00
2018-07-23T03:30:59.935Z,100.00
2018-07-23T03:33:26.249Z,100.00
2018-07-23T03:35:52.564Z,100.00
2018-07-23T03:38:18.881Z,100.00
2018-07-23T03:40:45.198Z,100.00
2018-07-23T03:43:11.507Z,100.00
2018-07-23T03:45:37.819Z,100.00
2018-07-23T03:48:04.137Z,100.00
2018-07-23T03:50:30.450Z,100.00
2018-07-23T03:52:56.771Z,100.00
2018-07-23T03:55:23.090Z,100.00
2018-07-23T03:57:49.409Z,100.00
2018-07-23T04:00:15.724Z,100.00
2018-07-23T04:02:42.034Z,100.00
2018-07-23T04:05:08.352Z,100.00
2018-07-23T04:07:34.668Z,100.00
2018-07-23T04:10:01.034Z,100.00
2018-07-23T04:12:27.299Z,100.00
2018-07-23T04:14:53.615Z,100.00
2018-07-23T04:17:19.931Z,100.00
2018-07-23T04:19:46.257Z,100.00
2018-07-23T04:22:12.569Z,100.00
2018-07-23T04:24:38.877Z,100.00
2018-07-23T04:27:05.185Z,100.00
2018-07-23T04:29:31.502Z,100.00
2018-07-23T04:31:57.814Z,100.00
2018-07-23T04:34:24.132Z,100.00
2018-07-23T04:36:50.481Z,100.00
2018-07-23T04:39:16.792Z,99.27
2018-07-23T04:41:43.096Z,100.00
2018-07-23T04:44:09.413Z,100.00
2018-07-23T04:46:35.720Z,100.00
2018-07-23T04:49:02.038Z,100.00
2018-07-23T04:51:28.347Z,100.00
2018-07-23T04:53:54.702Z,100.00
2018-07-23T04:56:21.011Z,100.00
2018-07-23T04:58:47.363Z,100.00
2018-07-23T05:01:13.687Z,100.00
2018-07-23T05:03:40.011Z,100.00
2018-07-23T05:06:06.325Z,100.00
2018-07-23T05:08:32.647Z,100.00
2018-07-23T05:10:58.988Z,100.00
2018-07-23T05:13:25.298Z,100.00
2018-07-23T05:15:51.628Z,100.00
2018-07-23T05:18:17.921Z,100.00
2018-07-23T05:20:44.244Z,100.00
2018-07-23T05:23:10.561Z,100.00
2018-07-23T05:25:36.873Z,100.00
2018-07-23T05:28:03.195Z,100.00
2018-07-23T05:30:29.504Z,100.00
2018-07-23T05:32:55.826Z,100.00
2018-07-23T05:35:22.147Z,100.00
2018-07-23T05:37:48.466Z,100.00
2018-07-23T05:40:14.789Z,100.00
2018-07-23T05:42:41.109Z,100.00
2018-07-23T05:45:07.423Z,100.00
2018-07-23T05:47:33.738Z,100.00
2018-07-23T05:50:00.049Z,100.00
2018-07-23T05:52:26.361Z,100.00
2018-07-23T05:54:52.682Z,100.00
2018-07-23T05:57:18.991Z,100.00
2018-07-23T05:59:45.298Z,100.00
2018-07-23T06:02:11.608Z,100.00
2018-07-23T06:04:37.960Z,100.00
2018-07-23T06:07:04.352Z,100.00
2018-07-23T06:09:30.581Z,100.00
2018-07-23T06:11:56.896Z,100.00
2018-07-23T06:14:23.216Z,100.00
2018-07-23T06:16:49.529Z,100.00
2018-07-23T06:19:15.844Z,100.00
2018-07-23T06:21:42.158Z,100.00
2018-07-23T06:24:08.476Z,100.00
2018-07-23T06:26:34.820Z,100.00
2018-07-23T06:29:01.133Z,100.00
2018-07-23T06:31:27.456Z,100.00
2018-07-23T06:33:53.830Z,98.92
2018-07-23T06:36:20.093Z,99.30
2018-07-23T06:38:46.427Z,99.62
2018-07-23T06:41:12.743Z,98.45
2018-07-23T06:43:39.052Z,96.91
2018-07-23T06:46:05.364Z,93.25
2018-07-23T06:48:31.674Z,92.39
2018-07-23T06:50:57.990Z,90.10
2018-07-23T06:53:24.312Z,88.19
2018-07-23T06:55:50.628Z,87.43
2018-07-23T06:58:16.936Z,84.65
2018-07-23T07:00:43.304Z,83.67
2018-07-23T07:03:09.613Z,83.13
2018-07-23T07:05:35.869Z,81.35
2018-07-23T07:08:02.221Z,81.18
2018-07-23T07:10:28.533Z,79.99
2018-07-23T07:12:54.851Z,79.06
2018-07-23T07:15:21.235Z,77.73
2018-07-23T07:17:47.543Z,78.50
2018-07-23T07:20:13.852Z,77.69
2018-07-23T07:22:40.170Z,76.82
2018-07-23T07:25:06.487Z,76.20
2018-07-23T07:27:32.869Z,76.76
2018-07-23T07:29:59.203Z,76.19
2018-07-23T07:32:25.522Z,76.67
2018-07-23T07:34:51.884Z,76.34
2018-07-23T07:37:18.203Z,75.60
2018-07-23T07:39:44.531Z,74.12
2018-07-23T07:42:10.823Z,73.36
2018-07-23T07:44:37.143Z,72.57
2018-07-23T07:47:03.462Z,73.58
2018-07-23T07:49:29.779Z,69.95
2018-07-23T07:51:56.101Z,70.15
2018-07-23T07:54:22.488Z,71.29
2018-07-23T07:56:48.846Z,72.21
2018-07-23T07:59:15.198Z,71.93
2018-07-23T08:01:41.501Z,71.74
2018-07-23T08:04:07.812Z,72.17
2018-07-23T08:06:34.177Z,72.04
2018-07-23T08:09:00.497Z,71.71
2018-07-23T08:11:26.852Z,72.14
2018-07-23T08:13:53.169Z,71.95
2018-07-23T08:16:19.491Z,73.53
2018-07-23T08:18:45.800Z,71.30
2018-07-23T08:21:12.112Z,68.86
2018-07-23T08:23:38.420Z,69.86
2018-07-23T08:26:04.775Z,72.83
2018-07-23T08:28:31.095Z,70.46
2018-07-23T08:30:57.399Z,68.39
2018-07-23T08:33:23.713Z,70.32
2018-07-23T08:35:50.032Z,68.24
2018-07-23T08:38:16.394Z,68.77
2018-07-23T08:40:42.704Z,68.65
2018-07-23T08:43:09.060Z,67.84
2018-07-23T08:45:35.336Z,69.05
2018-07-23T08:48:01.643Z,68.02
2018-07-23T08:50:27.971Z,66.67
2018-07-23T08:52:54.282Z,66.84
2018-07-23T08:55:20.592Z,66.67
2018-07-23T08:57:46.905Z,66.77
2018-07-23T09:00:13.263Z,66.81
2018-07-23T09:02:39.576Z,69.09
2018-07-23T09:05:05.888Z,68.05
2018-07-23T09:07:32.195Z,67.30
2018-07-23T09:09:58.515Z,64.47
2018-07-23T09:12:24.828Z,64.13
2018-07-23T09:14:51.206Z,66.37
2018-07-23T09:17:17.582Z,64.95
2018-07-23T09:19:43.891Z,62.98
2018-07-23T09:22:10.257Z,63.43
2018-07-23T09:24:36.529Z,60.31
2018-07-23T09:27:02.845Z,61.14
2018-07-23T09:29:29.161Z,60.92
2018-07-23T09:31:55.476Z,59.71
2018-07-23T09:34:21.793Z,59.45
2018-07-23T09:36:48.106Z,59.63
2018-07-23T09:39:14.426Z,59.41
2018-07-23T09:41:40.736Z,54.01
2018-07-23T09:44:07.054Z,56.01
2018-07-23T09:46:33.368Z,55.43
2018-07-23T09:48:59.726Z,57.67
2018-07-23T09:51:26.082Z,58.62
2018-07-23T09:53:52.364Z,55.37
2018-07-23T09:56:18.722Z,54.83
2018-07-23T09:58:45.031Z,55.58
2018-07-23T10:01:11.345Z,54.78
2018-07-23T10:03:37.721Z,55.13
2018-07-23T10:06:03.976Z,55.52
2018-07-23T10:08:30.293Z,55.01
2018-07-23T10:10:56.654Z,55.71
2018-07-23T10:13:22.992Z,54.82
2018-07-23T10:15:49.306Z,55.12
2018-07-23T10:18:15.626Z,54.96
2018-07-23T10:20:41.935Z,55.89
2018-07-23T10:23:08.249Z,56.54
2018-07-23T10:25:34.560Z,57.57
2018-07-23T10:28:00.876Z,59.63
2018-07-23T10:30:27.192Z,60.00
2018-07-23T10:32:53.545Z,60.81
2018-07-23T10:35:19.856Z,63.81
2018-07-23T10:37:46.162Z,64.12
2018-07-23T10:40:12.472Z,66.31
2018-07-23T10:42:38.781Z,66.65
2018-07-23T10:45:05.103Z,68.76
2018-07-23T10:47:31.412Z,67.92
2018-07-23T10:49:57.720Z,68.73
2018-07-23T10:52:24.033Z,68.01
2018-07-23T10:54:50.356Z,68.70
2018-07-23T10:57:16.722Z,69.05
2018-07-23T10:59:42.980Z,69.17
2018-07-23T11:02:09.296Z,69.42
2018-07-23T11:04:35.608Z,70.54
2018-07-23T11:07:01.919Z,71.32
2018-07-23T11:09:28.226Z,71.71
2018-07-23T11:11:54.533Z,72.07
2018-07-23T11:14:20.847Z,73.21
2018-07-23T11:16:47.156Z,73.33
2018-07-23T11:19:13.513Z,72.39
2018-07-23T11:21:39.777Z,73.20
2018-07-23T11:24:06.129Z,73.36
2018-07-23T11:26:32.407Z,74.15
2018-07-23T11:28:58.715Z,74.96
2018-07-23T11:31:25.026Z,75.63
2018-07-23T11:33:51.337Z,75.75
2018-07-23T11:36:17.650Z,76.19
2018-07-23T11:38:43.968Z,76.81
2018-07-23T11:41:10.276Z,77.51
2018-07-23T11:43:36.587Z,78.16
2018-07-23T11:46:02.949Z,77.82
2018-07-23T11:48:29.251Z,77.78
2018-07-23T11:50:55.566Z,79.08
2018-07-23T11:53:21.892Z,79.47
2018-07-23T11:55:48.195Z,77.77
2018-07-23T11:58:14.543Z,78.52
2018-07-23T12:00:40.860Z,80.38
2018-07-23T12:03:07.168Z,78.80
2018-07-23T12:05:33.475Z,77.08
2018-07-23T12:07:59.803Z,76.91
2018-07-23T12:10:26.115Z,75.84
2018-07-23T12:12:52.428Z,74.75
2018-07-23T12:15:18.735Z,73.26
2018-07-23T12:17:45.059Z,73.18
2018-07-23T12:20:14.199Z,73.19
2018-07-23T12:22:40.511Z,74.29
2018-07-23T12:25:06.825Z,73.79
2018-07-23T12:27:33.134Z,73.64
2018-07-23T12:29:59.444Z,73.78
2018-07-23T12:32:25.809Z,74.56
2018-07-23T12:34:52.067Z,74.46
2018-07-23T12:37:18.420Z,73.52
2018-07-23T12:39:44.827Z,73.31
2018-07-23T12:42:11.102Z,72.53
2018-07-23T12:44:37.416Z,72.92
2018-07-23T12:47:03.736Z,73.03
2018-07-23T12:49:30.049Z,72.59
2018-07-23T12:51:56.356Z,72.27
2018-07-23T12:54:22.685Z,71.23
2018-07-23T12:56:48.997Z,69.96
2018-07-23T12:59:15.343Z,70.42
2018-07-23T13:01:41.654Z,69.28
2018-07-23T13:04:07.973Z,69.99
2018-07-23T13:06:34.288Z,68.22
2018-07-23T13:09:00.602Z,68.88
2018-07-23T13:11:26.914Z,68.15
2018-07-23T13:13:53.253Z,69.61
2018-07-23T13:16:19.532Z,69.38
2018-07-23T13:18:45.839Z,71.87
2018-07-23T13:21:12.162Z,75.39
2018-07-23T13:23:38.472Z,75.71
2018-07-23T13:26:04.801Z,75.07
2018-07-23T13:28:31.121Z,73.94
2018-07-23T13:30:57.438Z,73.20
2018-07-23T13:33:23.768Z,72.50
2018-07-23T13:35:50.076Z,72.60
2018-07-23T13:38:16.455Z,73.49
2018-07-23T13:40:42.748Z,74.45
2018-07-23T13:43:09.055Z,76.02
2018-07-23T13:45:35.374Z,77.89
2018-07-23T13:48:01.686Z,80.15
2018-07-23T13:50:27.996Z,81.62
2018-07-23T13:52:54.314Z,82.38
2018-07-23T13:55:20.640Z,82.34
2018-07-23T13:57:46.953Z,83.81
2018-07-23T14:00:13.310Z,84.38
2018-07-23T14:02:39.633Z,84.28
2018-07-23T14:05:05.949Z,85.46
2018-07-23T14:07:32.263Z,85.80
2018-07-23T14:09:58.578Z,87.13
2018-07-23T14:12:24.895Z,88.21
2018-07-23T14:14:51.207Z,89.33
2018-07-23T14:17:17.517Z,86.74
2018-07-23T14:19:43.835Z,83.38
2018-07-23T14:22:10.146Z,81.87
2018-07-23T14:24:36.458Z,79.76
2018-07-23T14:27:02.772Z,79.69
2018-07-23T14:29:29.087Z,80.51
2018-07-23T14:31:55.404Z,81.16
2018-07-23T14:34:21.723Z,80.47
2018-07-23T14:36:48.056Z,80.95
2018-07-23T14:39:14.374Z,81.38
2018-07-23T14:41:40.686Z,82.47
2018-07-23T14:44:06.998Z,82.51
2018-07-23T14:46:33.323Z,84.11
2018-07-23T14:48:59.627Z,85.24
2018-07-23T14:51:25.946Z,83.39
2018-07-23T14:53:52.265Z,84.25
2018-07-23T14:56:18.583Z,85.07
2018-07-23T14:58:44.891Z,85.32
2018-07-23T15:01:11.204Z,84.93
2018-07-23T15:03:37.520Z,84.69
2018-07-23T15:06:03.832Z,84.52
2018-07-23T15:08:30.167Z,84.26
2018-07-23T15:10:56.518Z,85.38
2018-07-23T15:13:22.828Z,86.32
2018-07-23T15:15:49.179Z,85.81
2018-07-23T15:18:15.505Z,84.25
2018-07-23T15:20:41.858Z,83.40
2018-07-23T15:23:08.225Z,84.20
2018-07-23T15:25:34.537Z,84.18
2018-07-23T15:28:00.863Z,84.17
2018-07-23T15:30:27.236Z,83.71
2018-07-23T15:32:53.627Z,85.24
2018-07-23T15:35:19.895Z,85.88
2018-07-23T15:37:46.208Z,85.67
2018-07-23T15:40:12.520Z,86.05
2018-07-23T15:42:38.896Z,85.75
2018-07-23T15:45:05.294Z,85.50
2018-07-23T15:47:31.523Z,86.49
2018-07-23T15:49:57.845Z,87.52
2018-07-23T15:52:24.172Z,86.96
2018-07-23T15:54:50.493Z,87.75
2018-07-23T15:57:16.810Z,87.66
2018-07-23T15:59:43.142Z,88.67
2018-07-23T16:02:09.455Z,90.06
2018-07-23T16:04:35.755Z,90.91
2018-07-23T16:07:02.063Z,91.62
2018-07-23T16:09:28.375Z,92.50
2018-07-23T16:11:55.082Z,92.60
2018-07-23T16:14:21.394Z,92.41
2018-07-23T16:16:47.706Z,92.13
2018-07-23T16:19:14.025Z,92.20
2018-07-23T16:21:40.383Z,91.98
2018-07-23T16:24:06.696Z,88.93
2018-07-23T16:26:33.012Z,90.03
2018-07-23T16:28:59.327Z,89.19
2018-07-23T16:31:25.683Z,90.62
2018-07-23T16:33:52.002Z,90.95
2018-07-23T16:36:18.353Z,91.97
2018-07-23T16:38:44.731Z,93.15
2018-07-23T16:41:11.039Z,93.73
2018-07-23T16:43:37.396Z,93.96
2018-07-23T16:46:03.704Z,95.49
2018-07-23T16:48:30.055Z,95.13
2018-07-23T16:50:56.402Z,94.71
2018-07-23T16:53:22.656Z,92.75
2018-07-23T16:55:48.981Z,90.17
2018-07-23T16:58:15.314Z,88.69
2018-07-23T17:00:41.623Z,90.70
2018-07-23T17:03:07.963Z,91.26
2018-07-23T17:05:34.317Z,91.59
2018-07-23T17:08:00.586Z,92.36
2018-07-23T17:10:26.895Z,92.09
2018-07-23T17:12:53.225Z,91.17
2018-07-23T17:15:19.543Z,89.86
2018-07-23T17:17:45.918Z,89.58
2018-07-23T17:20:12.169Z,89.44
2018-07-23T17:22:38.490Z,89.28
2018-07-23T17:25:04.802Z,87.73
2018-07-23T17:27:31.107Z,86.15
2018-07-23T17:29:57.419Z,85.20
2018-07-23T17:32:23.731Z,85.45
2018-07-23T17:34:50.055Z,86.85
2018-07-23T17:37:16.380Z,87.55
2018-07-23T17:39:42.730Z,88.39
2018-07-23T17:42:09.079Z,89.38
2018-07-23T17:44:35.433Z,89.00
2018-07-23T17:47:01.784Z,87.65
2018-07-23T17:49:28.095Z,89.09
2018-07-23T17:51:54.422Z,90.85
2018-07-23T17:54:20.744Z,91.36
2018-07-23T17:56:47.052Z,91.84
2018-07-23T17:59:13.367Z,92.20
2018-07-23T18:01:39.683Z,91.55
2018-07-23T18:04:05.997Z,90.54
2018-07-23T18:06:32.400Z,89.19
2018-07-23T18:08:58.677Z,87.20
2018-07-23T18:11:25.087Z,87.65
2018-07-23T18:13:51.313Z,87.83
2018-07-23T18:16:17.619Z,88.56
2018-07-23T18:18:43.950Z,88.24
2018-07-23T18:21:10.273Z,88.70
2018-07-23T18:23:36.627Z,90.04
2018-07-23T18:26:02.920Z,89.63
2018-07-23T18:28:29.296Z,87.71
2018-07-23T18:30:55.539Z,88.24
2018-07-23T18:33:21.871Z,88.98
2018-07-23T18:35:48.200Z,88.51
2018-07-23T18:38:14.620Z,89.25
2018-07-23T18:40:40.869Z,89.41
2018-07-23T18:43:07.193Z,90.77
2018-07-23T18:45:33.499Z,92.11
2018-07-23T18:47:59.811Z,93.16
2018-07-23T18:50:26.138Z,95.13
2018-07-23T18:52:52.466Z,96.63
2018-07-23T18:55:18.783Z,97.39
2018-07-23T18:57:45.107Z,96.31
2018-07-23T19:00:11.456Z,96.67
2018-07-23T19:02:37.827Z,97.62
2018-07-23T19:05:04.150Z,96.67
2018-07-23T19:07:30.494Z,96.27
2018-07-23T19:09:56.819Z,95.57
2018-07-23T19:12:23.124Z,94.64
2018-07-23T19:14:49.455Z,94.08
2018-07-23T19:17:15.787Z,94.51
2018-07-23T19:19:43.692Z,95.26
2018-07-23T19:22:08.407Z,95.25
2018-07-23T19:24:34.734Z,96.84
2018-07-23T19:27:01.092Z,97.92
2018-07-23T19:29:27.405Z,100.00
2018-07-23T19:31:53.724Z,100.00
2018-07-23T19:34:20.063Z,100.00
2018-07-23T19:36:46.381Z,100.00
2018-07-23T19:39:12.717Z,100.00
2018-07-23T19:41:39.082Z,100.00
2018-07-23T19:44:05.403Z,100.00
2018-07-23T19:46:31.722Z,100.00
2018-07-23T19:48:58.025Z,100.00
2018-07-23T19:51:24.399Z,100.00
2018-07-23T19:53:50.738Z,100.00
2018-07-23T19:56:17.066Z,100.00
2018-07-23T19:58:43.402Z,100.00
2018-07-23T20:01:09.709Z,100.00
2018-07-23T20:03:36.021Z,100.00
2018-07-23T20:06:02.351Z,100.00
2018-07-23T20:08:28.668Z,100.00
2018-07-23T20:10:54.982Z,100.00
2018-07-23T20:13:21.311Z,100.00
2018-07-23T20:15:47.653Z,100.00
2018-07-23T20:18:13.969Z,100.00
2018-07-23T20:20:40.302Z,100.00
2018-07-23T20:23:06.632Z,100.00
2018-07-23T20:25:32.946Z,100.00
2018-07-23T20:27:59.274Z,100.00
2018-07-23T20:30:25.603Z,100.00
2018-07-23T20:32:51.959Z,100.00
2018-07-23T20:35:18.317Z,100.00
2018-07-23T20:37:44.634Z,100.00
2018-07-23T20:40:11.024Z,100.00
2018-07-23T20:42:37.273Z,100.00
2018-07-23T20:45:03.640Z,100.00
2018-07-23T20:47:29.952Z,100.00
2018-07-23T20:49:56.282Z,100.00
2018-07-23T20:52:22.593Z,100.00
2018-07-23T20:54:48.960Z,100.00
2018-07-23T20:57:15.281Z,100.00
2018-07-23T20:59:41.603Z,100.00
2018-07-23T21:02:07.916Z,100.00
2018-07-23T21:04:34.221Z,100.00
2018-07-23T21:07:00.539Z,100.00
2018-07-23T21:09:26.853Z,100.00
2018-07-23T21:11:53.169Z,100.00
2018-07-23T21:14:19.502Z,100.00
2018-07-23T21:16:45.839Z,100.00
2018-07-23T21:19:12.158Z,100.00
2018-07-23T21:21:38.471Z,100.00
2018-07-23T21:24:04.791Z,100.00
2018-07-23T21:26:31.107Z,100.00
2018-07-23T21:28:57.463Z,100.00
2018-07-23T21:31:23.779Z,100.00
2018-07-23T21:33:50.090Z,100.00
2018-07-23T21:36:16.417Z,100.00
2018-07-23T21:38:42.735Z,100.00
2018-07-23T21:41:09.059Z,100.00
2018-07-23T21:43:35.373Z,100.00
2018-07-23T21:46:01.681Z,100.00
2018-07-23T21:48:28.026Z,100.00
2018-07-23T21:50:54.308Z,100.00
2018-07-23T21:53:20.661Z,100.00
2018-07-23T21:55:46.971Z,100.00
2018-07-23T21:58:13.321Z,100.00
2018-07-23T22:00:39.699Z,100.00
2018-07-23T22:03:05.953Z,100.00
2018-07-23T22:05:32.309Z,100.00
2018-07-23T22:07:58.631Z,100.00
2018-07-23T22:10:24.948Z,100.00
2018-07-23T22:12:51.276Z,100.00
2018-07-23T22:15:17.588Z,100.00
2018-07-23T22:17:43.904Z,100.00
2018-07-23T22:20:10.260Z,100.00
2018-07-23T22:22:36.572Z,100.00
2018-07-23T22:25:02.881Z,100.00
2018-07-23T22:27:29.232Z,100.00
2018-07-23T22:29:55.543Z,100.00
2018-07-23T22:32:21.893Z,100.00
2018-07-23T22:34:48.210Z,100.00
2018-07-23T22:37:14.523Z,100.00
2018-07-23T22:39:40.833Z,100.00
2018-07-23T22:42:07.192Z,100.00
2018-07-23T22:44:33.461Z,100.00
2018-07-23T22:46:59.773Z,100.00
2018-07-23T22:49:26.086Z,100.00
2018-07-23T22:51:52.399Z,100.00
2018-07-23T22:54:18.712Z,100.00
2018-07-23T22:56:45.022Z,100.00
2018-07-23T22:59:11.352Z,100.00
2018-07-23T23:01:37.669Z,100.00
2018-07-23T23:04:03.978Z,100.00
2018-07-23T23:06:30.298Z,100.00
2018-07-23T23:08:56.653Z,100.00
2018-07-23T23:11:22.966Z,100.00
2018-07-23T23:13:49.279Z,100.00
2018-07-23T23:16:15.594Z,100.00
2018-07-23T23:18:41.917Z,100.00
2018-07-23T23:21:08.282Z,100.00
2018-07-23T23:23:34.599Z,100.00
2018-07-23T23:26:00.916Z,100.00
2018-07-23T23:28:27.235Z,100.00
2018-07-23T23:30:53.551Z,100.00
2018-07-23T23:33:19.872Z,100.00
2018-07-23T23:35:46.184Z,100.00
2018-07-23T23:38:12.500Z,100.00
2018-07-23T23:40:38.822Z,99.85
2018-07-23T23:43:05.131Z,99.23
2018-07-23T23:45:31.436Z,98.50
2018-07-23T23:47:57.752Z,97.25
2018-07-23T23:50:24.060Z,96.09
2018-07-23T23:52:50.367Z,95.36
2018-07-23T23:55:16.679Z,94.49
2018-07-23T23:57:42.986Z,93.62
